Time;durP1;ratioP1;P1;durP2;ratioP2;P2;SDS_P1;SDS_P2;PMS_P1;PMS_P2;Temp;Humidity;BMP_temperature;BMP_pressure;BME280_temperature;BME280_humidity;BME280_pressure;Samples;Min_cycle;Max_cycle;Signal;HPM_P1;HPM_P2
2020/12/28 00:02:04;;;;;;;0.75;0.68;;;8.40;96.50;;;;;;5069638;28;20212;-58
2020/12/28 00:04:30;;;;;;;0.80;0.80;;;8.70;96.70;;;;;;5069477;28;20193;-59
2020/12/28 00:06:55;;;;;;;0.90;0.60;;;8.30;96.60;;;;;;5069266;28;20212;-59
2020/12/28 00:09:21;;;;;;;0.70;0.60;;;8.40;97.50;;;;;;5068610;28;20282;-58
2020/12/28 00:11:51;;;;;;;1.43;0.90;;;8.60;97.10;;;;;;5068833;28;20208;-58
2020/12/28 00:14:17;;;;;;;0.93;0.70;;;8.30;97.00;;;;;;5069315;28;20185;-59
2020/12/28 00:16:42;;;;;;;0.70;0.70;;;8.40;97.00;;;;;;5069129;28;20303;-59
2020/12/28 00:19:08;;;;;;;1.10;0.83;;;8.40;96.90;;;;;;5068682;28;20180;-59
2020/12/28 00:21:34;;;;;;;0.80;0.80;;;8.30;97.00;;;;;;5069295;28;20251;-58
2020/12/28 00:23:59;;;;;;;0.80;0.60;;;8.30;97.10;;;;;;5069616;28;20546;-58
2020/12/28 00:26:25;;;;;;;0.67;0.63;;;8.10;97.10;;;;;;5068944;28;20544;-58
2020/12/28 00:28:51;;;;;;;0.80;0.70;;;8.30;97.70;;;;;;5068968;28;20199;-59
2020/12/28 00:31:17;;;;;;;1.20;0.70;;;8.10;97.40;;;;;;5069015;28;20192;-59
2020/12/28 00:33:43;;;;;;;0.80;0.60;;;8.10;97.40;;;;;;5069089;28;20283;-58
2020/12/28 00:36:13;;;;;;;0.80;0.80;;;7.90;97.40;;;;;;5068774;28;20401;-58
2020/12/28 00:38:38;;;;;;;1.88;0.75;;;7.80;97.60;;;;;;5068817;28;20227;-58
2020/12/28 00:41:04;;;;;;;0.70;0.70;;;8.10;97.80;;;;;;5069108;28;20181;-59
2020/12/28 00:43:30;;;;;;;0.70;0.70;;;7.90;97.70;;;;;;5069169;28;20181;-58
2020/12/28 00:45:55;;;;;;;0.80;0.80;;;7.90;97.70;;;;;;5069028;28;20212;-58
2020/12/28 00:48:21;;;;;;;0.60;0.60;;;7.90;97.80;;;;;;5062378;28;20198;-58
2020/12/28 00:50:47;;;;;;;0.70;0.60;;;7.80;97.80;;;;;;5059614;28;20552;-58
2020/12/28 00:53:13;;;;;;;0.80;0.70;;;7.90;98.10;;;;;;5068877;28;20213;-58
2020/12/28 00:55:38;;;;;;;0.60;0.60;;;7.60;98.10;;;;;;5068341;28;20177;-58
2020/12/28 00:58:04;;;;;;;1.03;0.70;;;7.80;98.40;;;;;;5068586;28;20632;-58
2020/12/28 01:00:29;;;;;;;0.80;0.70;;;7.90;98.50;;;;;;5068425;28;20181;-58
2020/12/28 01:02:55;;;;;;;0.93;0.70;;;7.90;98.70;;;;;;5068457;28;20181;-58
2020/12/28 01:05:21;;;;;;;1.20;0.70;;;7.70;98.70;;;;;;5068345;28;20185;-58
2020/12/28 01:07:46;;;;;;;0.60;0.60;;;7.80;98.80;;;;;;5068422;28;20200;-59
2020/12/28 01:10:13;;;;;;;0.70;0.70;;;7.60;98.70;;;;;;5068169;28;20192;-58
2020/12/28 01:12:38;;;;;;;0.80;0.70;;;7.90;98.90;;;;;;5068510;28;20212;-58
2020/12/28 01:15:04;;;;;;;0.90;0.77;;;7.90;98.90;;;;;;5068449;28;20362;-59
2020/12/28 01:17:30;;;;;;;0.90;0.80;;;7.90;98.90;;;;;;5068809;28;20478;-58
2020/12/28 01:19:55;;;;;;;0.83;0.77;;;7.80;99.00;;;;;;5068044;28;20254;-58
2020/12/28 01:22:21;;;;;;;1.07;0.80;;;8.10;99.30;;;;;;5068247;28;20219;-58
2020/12/28 01:24:46;;;;;;;1.00;0.90;;;8.10;99.60;;;;;;5068370;28;20195;-59
2020/12/28 01:27:12;;;;;;;1.10;0.90;;;7.80;99.00;;;;;;5068149;28;20196;-59
2020/12/28 01:29:38;;;;;;;0.97;0.70;;;7.80;99.00;;;;;;5068198;28;20180;-58
2020/12/28 01:32:03;;;;;;;1.47;0.70;;;8.00;99.20;;;;;;5068078;28;20216;-58
2020/12/28 01:34:29;;;;;;;0.87;0.80;;;7.80;99.20;;;;;;5068257;28;20188;-58
2020/12/28 01:36:54;;;;;;;2.07;0.97;;;7.80;99.40;;;;;;5067921;28;20655;-59
2020/12/28 01:39:20;;;;;;;1.00;0.90;;;7.90;99.60;;;;;;5067932;28;20168;-59
2020/12/28 01:41:45;;;;;;;0.90;0.80;;;7.60;99.40;;;;;;5064703;28;20182;-58
2020/12/28 01:44:11;;;;;;;1.17;0.80;;;8.00;99.50;;;;;;5048267;28;20189;-59
2020/12/28 01:46:37;;;;;;;1.00;0.90;;;8.00;99.60;;;;;;5047731;28;20253;-58
2020/12/28 01:49:03;;;;;;;0.80;0.70;;;7.70;99.60;;;;;;5059464;28;20188;-58
2020/12/28 01:51:28;;;;;;;0.70;0.70;;;7.80;99.70;;;;;;5062774;28;20490;-59
2020/12/28 01:53:57;;;;;;;1.10;0.80;;;7.90;99.90;;;;;;5068044;28;20189;-58
2020/12/28 01:56:27;;;;;;;0.70;0.70;;;7.60;99.60;;;;;;5067732;28;20200;-59
2020/12/28 01:58:52;;;;;;;0.90;0.77;;;8.10;99.90;;;;;;5067765;28;20662;-58
2020/12/28 02:01:19;;;;;;;0.87;0.70;;;7.70;99.90;;;;;;5067604;28;20292;-59
2020/12/28 02:03:46;;;;;;;1.00;0.90;;;7.90;99.90;;;;;;5067873;28;20557;-59
2020/12/28 02:06:12;;;;;;;0.70;0.63;;;7.80;99.90;;;;;;5069219;28;20166;-58
2020/12/28 02:08:38;;;;;;;1.10;0.95;;;7.80;99.90;;;;;;5067289;28;20278;-58
2020/12/28 02:11:04;;;;;;;1.10;0.70;;;8.00;99.90;;;;;;5067957;28;20193;-58
2020/12/28 02:13:29;;;;;;;0.83;0.70;;;7.90;99.90;;;;;;5068201;28;20205;-58
2020/12/28 02:15:55;;;;;;;0.70;0.67;;;7.70;99.90;;;;;;5067555;28;20713;-58
2020/12/28 02:18:22;;;;;;;0.80;0.80;;;7.70;99.90;;;;;;5067645;28;20270;-58
2020/12/28 02:20:47;;;;;;;0.85;0.70;;;7.90;99.90;;;;;;5067750;28;20233;-58
2020/12/28 02:23:13;;;;;;;0.87;0.83;;;7.80;99.90;;;;;;5068194;28;20212;-58
2020/12/28 02:25:39;;;;;;;0.93;0.93;;;7.50;99.90;;;;;;5068875;28;20207;-58
2020/12/28 02:28:04;;;;;;;1.10;1.00;;;7.60;99.90;;;;;;5067224;28;20193;-58
2020/12/28 02:30:30;;;;;;;0.90;0.90;;;7.50;99.90;;;;;;5067370;28;20207;-58
2020/12/28 02:32:56;;;;;;;1.13;0.73;;;7.70;99.90;;;;;;5067297;28;20200;-58
2020/12/28 02:35:24;;;;;;;0.80;0.80;;;7.60;99.90;;;;;;5070475;28;20427;-58
2020/12/28 02:37:50;;;;;;;0.80;0.80;;;7.80;99.90;;;;;;5071724;28;20208;-59
2020/12/28 02:40:16;;;;;;;0.93;0.83;;;8.00;99.90;;;;;;5067718;28;20714;-58
2020/12/28 02:42:41;;;;;;;0.97;0.87;;;7.70;99.90;;;;;;5052035;28;20184;-59
2020/12/28 02:45:07;;;;;;;1.20;1.10;;;7.60;99.90;;;;;;5071162;28;20288;-59
2020/12/28 02:47:32;;;;;;;0.70;0.70;;;7.60;99.90;;;;;;5070901;28;20205;-58
2020/12/28 02:49:58;;;;;;;1.10;1.00;;;7.50;99.90;;;;;;5064578;28;20654;-59
2020/12/28 02:52:23;;;;;;;1.00;0.77;;;7.60;99.90;;;;;;5070760;28;20207;-58
2020/12/28 02:54:49;;;;;;;0.97;0.87;;;7.80;99.90;;;;;;5082770;28;20180;-58
2020/12/28 02:57:15;;;;;;;1.00;0.80;;;7.80;99.90;;;;;;5070804;28;20304;-58
2020/12/28 02:59:40;;;;;;;1.10;0.90;;;7.80;99.90;;;;;;5070352;28;20737;-59
2020/12/28 03:02:06;;;;;;;0.87;0.73;;;7.80;99.90;;;;;;5070688;28;20197;-58
2020/12/28 03:04:31;;;;;;;0.80;0.80;;;7.70;99.90;;;;;;5070819;28;20633;-58
2020/12/28 03:06:57;;;;;;;1.90;0.80;;;7.50;99.90;;;;;;5070320;28;20220;-58
2020/12/28 03:09:23;;;;;;;0.80;0.80;;;7.60;99.90;;;;;;5070538;28;20212;-58
2020/12/28 03:11:48;;;;;;;1.03;0.80;;;7.50;99.90;;;;;;5070541;28;20204;-59
2020/12/28 03:14:14;;;;;;;1.47;0.77;;;7.60;99.90;;;;;;5070532;28;20735;-59
2020/12/28 03:16:39;;;;;;;0.67;0.67;;;7.50;99.90;;;;;;5070153;28;20204;-59
2020/12/28 03:19:05;;;;;;;0.80;0.70;;;7.40;99.90;;;;;;5070247;28;20196;-59
2020/12/28 03:21:31;;;;;;;0.80;0.80;;;7.20;99.90;;;;;;5070609;28;20277;-58
2020/12/28 03:23:56;;;;;;;1.77;0.90;;;7.50;99.90;;;;;;5070218;28;20196;-59
2020/12/28 03:26:22;;;;;;;1.37;0.77;;;7.20;99.90;;;;;;5070374;28;20224;-58
2020/12/28 03:28:47;;;;;;;0.70;0.70;;;7.10;99.90;;;;;;5069672;28;20230;-58
2020/12/28 03:31:14;;;;;;;0.70;0.70;;;7.30;99.90;;;;;;5053992;28;20298;-59
2020/12/28 03:33:39;;;;;;;1.13;0.90;;;7.10;99.90;;;;;;5070101;28;20267;-58
2020/12/28 03:36:05;;;;;;;0.70;0.63;;;7.00;99.90;;;;;;5070112;28;20646;-58
2020/12/28 03:38:30;;;;;;;0.70;0.60;;;7.00;99.90;;;;;;5069987;28;20190;-59
2020/12/28 03:40:56;;;;;;;0.70;0.57;;;7.10;99.90;;;;;;5066544;28;20595;-58
2020/12/28 03:43:22;;;;;;;0.70;0.70;;;7.10;99.90;;;;;;5051450;28;20182;-59
2020/12/28 03:45:47;;;;;;;0.70;0.70;;;7.10;99.90;;;;;;5050425;28;20189;-58
2020/12/28 03:48:13;;;;;;;0.60;0.50;;;6.90;99.90;;;;;;5050198;28;20206;-59
2020/12/28 03:50:39;;;;;;;0.90;0.60;;;6.90;99.90;;;;;;5064715;28;20192;-58
2020/12/28 03:53:04;;;;;;;0.60;0.50;;;7.00;99.90;;;;;;5069606;28;20713;-58
2020/12/28 03:55:30;;;;;;;0.80;0.70;;;7.20;99.90;;;;;;5069726;28;20199;-58
2020/12/28 03:57:55;;;;;;;0.60;0.53;;;7.20;99.90;;;;;;5069253;28;20212;-59
2020/12/28 04:00:21;;;;;;;0.70;0.60;;;7.10;99.90;;;;;;5069559;28;20184;-58
2020/12/28 04:02:49;;;;;;;1.43;1.33;;;7.10;99.90;;;;;;5070915;28;20330;-59
2020/12/28 04:05:14;;;;;;;0.85;0.60;;;6.90;99.90;;;;;;5069348;28;20199;-59
2020/12/28 04:07:40;;;;;;;2.70;1.47;;;7.10;99.90;;;;;;5069064;28;20209;-59
2020/12/28 04:10:06;;;;;;;0.80;0.67;;;7.00;99.90;;;;;;5069240;28;20465;-58
2020/12/28 04:12:31;;;;;;;0.80;0.80;;;6.70;99.90;;;;;;5068863;28;20656;-59
2020/12/28 04:14:57;;;;;;;0.80;0.80;;;6.70;99.90;;;;;;5069743;28;20185;-58
2020/12/28 04:17:22;;;;;;;1.20;1.10;;;6.50;99.90;;;;;;5069063;28;20677;-59
2020/12/28 04:19:48;;;;;;;1.77;0.90;;;6.70;99.90;;;;;;5069193;28;20438;-59
2020/12/28 04:22:13;;;;;;;0.80;0.80;;;6.40;99.90;;;;;;5069207;28;20237;-58
2020/12/28 04:24:39;;;;;;;1.40;1.20;;;6.50;99.90;;;;;;5068777;28;20285;-58
2020/12/28 04:27:05;;;;;;;1.20;1.10;;;6.30;99.90;;;;;;5069010;28;20223;-58
2020/12/28 04:29:30;;;;;;;2.17;1.50;;;6.40;99.90;;;;;;5070175;28;20654;-58
2020/12/28 04:31:56;;;;;;;1.30;1.20;;;6.30;99.90;;;;;;5069280;28;20260;-59
2020/12/28 04:34:22;;;;;;;2.43;1.20;;;6.20;99.90;;;;;;5069073;28;20201;-59
2020/12/28 04:36:48;;;;;;;1.25;1.10;;;6.00;99.90;;;;;;5069080;28;20659;-59
2020/12/28 04:39:14;;;;;;;1.10;1.00;;;6.20;99.90;;;;;;5068621;28;20182;-59
2020/12/28 04:41:39;;;;;;;1.83;1.10;;;6.10;99.90;;;;;;5068761;28;20437;-58
2020/12/28 04:44:05;;;;;;;1.30;1.20;;;6.00;99.90;;;;;;5068763;28;20701;-59
2020/12/28 04:46:31;;;;;;;1.23;1.07;;;6.30;99.90;;;;;;5069238;28;20238;-58
2020/12/28 04:48:57;;;;;;;1.40;1.30;;;6.40;99.90;;;;;;5064892;28;20182;-59
2020/12/28 04:51:24;;;;;;;0.95;0.80;;;6.30;99.90;;;;;;5066493;28;20187;-58
2020/12/28 04:53:54;;;;;;;1.20;1.10;;;6.10;99.90;;;;;;5060065;28;20177;-58
2020/12/28 04:56:20;;;;;;;3.15;2.58;;;6.30;99.90;;;;;;5067797;28;20265;-59
2020/12/28 04:58:47;;;;;;;0.85;0.85;;;6.20;99.90;;;;;;5068169;28;20212;-58
2020/12/28 05:01:12;;;;;;;1.20;1.10;;;6.10;99.90;;;;;;5070106;28;20563;-58
2020/12/28 05:03:38;;;;;;;0.93;0.83;;;6.10;99.90;;;;;;5068396;28;20181;-58
2020/12/28 05:06:04;;;;;;;0.90;0.73;;;6.40;99.90;;;;;;5068722;28;20179;-59
2020/12/28 05:08:29;;;;;;;0.70;0.70;;;6.20;99.90;;;;;;5068351;28;20632;-58
2020/12/28 05:11:06;;;;;;;1.40;0.80;;;6.40;99.90;;;;;;5068480;28;20647;-58
2020/12/28 05:13:32;;;;;;;1.05;0.70;;;6.40;99.90;;;;;;5068665;28;20297;-58
2020/12/28 05:15:57;;;;;;;1.00;0.90;;;6.50;99.90;;;;;;5068737;28;20329;-58
2020/12/28 05:18:24;;;;;;;1.63;0.77;;;6.40;99.90;;;;;;5068478;28;20695;-59
2020/12/28 05:20:50;;;;;;;1.00;0.80;;;6.60;99.90;;;;;;5068783;28;20562;-58
2020/12/28 05:23:17;;;;;;;1.00;0.90;;;6.50;99.90;;;;;;5068452;28;20185;-59
2020/12/28 05:25:45;;;;;;;1.42;0.70;;;6.70;99.90;;;;;;5068092;28;20188;-58
2020/12/28 05:28:21;;;;;;;1.90;0.80;;;6.40;99.90;;;;;;5058982;28;20328;-58
2020/12/28 05:30:48;;;;;;;0.77;0.77;;;6.60;99.90;;;;;;5048290;28;20178;-58
2020/12/28 05:33:14;;;;;;;0.65;0.63;;;6.90;99.90;;;;;;5053587;28;20243;-58
2020/12/28 05:35:40;;;;;;;0.87;0.57;;;6.80;99.90;;;;;;5069772;28;20579;-58
2020/12/28 05:38:11;;;;;;;0.70;0.70;;;6.70;99.90;;;;;;5064137;28;20763;-59
2020/12/28 05:40:37;;;;;;;1.10;0.63;;;6.90;99.90;;;;;;5056928;28;20184;-58
2020/12/28 05:43:04;;;;;;;1.13;0.60;;;6.60;99.90;;;;;;5067969;28;20582;-59
2020/12/28 05:45:31;;;;;;;0.90;0.80;;;6.60;99.90;;;;;;5068045;28;20723;-59
2020/12/28 05:47:59;;;;;;;0.80;0.70;;;6.60;99.90;;;;;;5067927;28;20700;-59
2020/12/28 05:50:33;;;;;;;1.98;0.73;;;6.60;99.90;;;;;;5061339;28;20371;-59
2020/12/28 05:53:01;;;;;;;2.65;0.90;;;6.70;99.90;;;;;;5067849;28;20321;-58
2020/12/28 05:55:30;;;;;;;0.60;0.50;;;6.60;99.90;;;;;;5067596;28;20181;-58
2020/12/28 05:57:58;;;;;;;1.00;0.70;;;6.60;99.90;;;;;;5067974;28;20206;-59
2020/12/28 06:00:25;;;;;;;0.88;0.60;;;6.50;99.90;;;;;;5067544;28;20188;-58
2020/12/28 06:02:51;;;;;;;0.70;0.68;;;6.40;99.90;;;;;;5067763;28;20217;-59
2020/12/28 06:05:19;;;;;;;0.60;0.55;;;6.60;99.90;;;;;;5067358;28;20225;-58
2020/12/28 06:07:46;;;;;;;0.90;0.80;;;6.60;99.90;;;;;;5069055;28;20223;-58
2020/12/28 06:10:13;;;;;;;0.85;0.85;;;6.50;99.90;;;;;;5071420;28;20301;-59
2020/12/28 06:12:39;;;;;;;0.80;0.60;;;6.60;99.90;;;;;;5071576;28;20246;-58
2020/12/28 06:15:25;;;;;;;1.08;0.77;;;6.60;99.90;;;;;;5071295;28;20188;-58
2020/12/28 06:17:51;;;;;;;0.70;0.60;;;6.60;99.90;;;;;;5070993;28;20209;-59
2020/12/28 06:20:17;;;;;;;0.70;0.70;;;6.70;99.90;;;;;;5071051;28;20648;-58
2020/12/28 06:22:43;;;;;;;0.80;0.80;;;6.60;99.90;;;;;;5071674;28;20228;-58
2020/12/28 06:25:12;;;;;;;0.93;0.65;;;6.60;99.90;;;;;;5070929;28;20233;-59
2020/12/28 06:27:42;;;;;;;0.60;0.60;;;6.60;99.90;;;;;;5067007;28;20263;-59
2020/12/28 06:30:22;;;;;;;4.25;0.77;;;6.50;99.90;;;;;;5064684;28;20653;-58
2020/12/28 06:33:08;;;;;;;1.35;0.60;;;6.90;99.90;;;;;;5071612;28;20219;-59
2020/12/28 06:35:34;;;;;;;0.77;0.70;;;6.70;99.90;;;;;;5070389;28;20301;-59
2020/12/28 06:38:01;;;;;;;0.80;0.63;;;6.70;99.90;;;;;;5071240;28;20737;-58
2020/12/28 06:40:34;;;;;;;0.68;0.60;;;6.50;99.90;;;;;;5070734;28;20648;-58
2020/12/28 06:43:15;;;;;;;0.70;0.65;;;6.50;99.90;;;;;;5070662;28;20207;-58
2020/12/28 06:45:43;;;;;;;0.82;0.70;;;6.50;99.90;;;;;;5070770;28;20669;-58
2020/12/28 06:48:16;;;;;;;1.00;0.90;;;6.50;99.90;;;;;;5070751;28;20213;-58
2020/12/28 06:50:41;;;;;;;1.15;0.95;;;6.50;99.90;;;;;;5058376;28;20183;-58
2020/12/28 06:53:07;;;;;;;1.20;0.93;;;6.30;99.90;;;;;;5070758;28;20206;-59
2020/12/28 06:55:32;;;;;;;1.57;1.00;;;6.40;99.90;;;;;;5070676;28;20192;-58
2020/12/28 06:58:02;;;;;;;2.90;1.00;;;6.60;99.90;;;;;;5070226;28;20897;-58
2020/12/28 07:00:27;;;;;;;2.15;1.30;;;6.50;99.90;;;;;;5070557;28;20380;-58
2020/12/28 07:02:54;;;;;;;1.13;1.00;;;6.40;99.90;;;;;;5071138;28;20229;-58
2020/12/28 07:05:25;;;;;;;1.23;0.90;;;6.50;99.90;;;;;;5070546;28;20431;-59
2020/12/28 07:07:54;;;;;;;1.05;0.80;;;6.60;99.90;;;;;;5070486;28;20232;-59
2020/12/28 07:10:24;;;;;;;2.92;1.20;;;6.50;99.90;;;;;;5070485;28;20222;-59
2020/12/28 07:12:50;;;;;;;2.05;1.00;;;6.50;99.90;;;;;;5070736;28;20213;-58
2020/12/28 07:15:19;;;;;;;0.90;0.90;;;6.40;99.90;;;;;;5070223;28;20181;-58
2020/12/28 07:17:45;;;;;;;4.25;1.00;;;6.40;99.90;;;;;;5070745;28;20375;-58
2020/12/28 07:20:13;;;;;;;2.45;1.10;;;6.50;99.90;;;;;;5069665;28;20273;-58
2020/12/28 07:22:43;;;;;;;2.20;0.88;;;6.40;99.90;;;;;;5070694;28;20177;-59
2020/12/28 07:25:11;;;;;;;1.15;0.90;;;6.40;99.90;;;;;;5070627;28;20290;-59
2020/12/28 07:27:40;;;;;;;1.38;1.27;;;6.30;99.90;;;;;;5070294;28;20223;-58
2020/12/28 07:30:07;;;;;;;1.70;1.60;;;6.50;99.90;;;;;;5069886;28;20664;-58
2020/12/28 07:32:33;;;;;;;1.33;0.90;;;6.30;99.90;;;;;;5069892;28;20219;-59
2020/12/28 07:34:58;;;;;;;1.30;1.20;;;6.30;99.90;;;;;;5070160;28;20180;-58
2020/12/28 07:37:30;;;;;;;3.97;1.13;;;5.90;99.90;;;;;;5070479;28;20205;-58
2020/12/28 07:39:56;;;;;;;1.73;0.95;;;6.10;99.90;;;;;;5069981;28;20178;-58
2020/12/28 07:42:24;;;;;;;1.00;0.90;;;6.30;99.90;;;;;;5070096;28;20219;-58
2020/12/28 07:44:58;;;;;;;3.17;1.00;;;6.40;99.90;;;;;;5066957;28;20191;-58
2020/12/28 07:47:51;;;;;;;1.27;0.95;;;6.50;99.90;;;;;;5050083;28;20598;-59
2020/12/28 07:50:18;;;;;;;1.20;1.10;;;6.50;99.90;;;;;;5065986;28;20882;-59
2020/12/28 07:53:11;;;;;;;1.00;0.90;;;6.30;99.90;;;;;;5059618;28;20201;-59
2020/12/28 07:55:42;;;;;;;1.95;1.10;;;6.20;99.90;;;;;;5069272;28;20662;-59
2020/12/28 07:58:09;;;;;;;0.88;0.82;;;6.00;99.90;;;;;;5069490;28;20574;-60
2020/12/28 08:00:39;;;;;;;2.67;1.33;;;6.20;99.90;;;;;;5069606;28;20269;-59
2020/12/28 08:03:15;;;;;;;3.05;1.50;;;6.30;99.90;;;;;;5069645;28;20706;-60
2020/12/28 08:05:41;;;;;;;1.35;1.25;;;6.40;99.90;;;;;;5056464;28;20268;-59
2020/12/28 08:08:22;;;;;;;1.00;0.90;;;6.10;99.90;;;;;;5069366;28;20247;-60
2020/12/28 08:10:56;;;;;;;1.63;1.25;;;6.20;99.90;;;;;;5070027;28;20219;-60
2020/12/28 08:13:28;;;;;;;1.98;1.20;;;6.00;99.90;;;;;;5069108;28;20243;-58
2020/12/28 08:15:54;;;;;;;0.90;0.90;;;6.10;99.90;;;;;;5072237;28;20636;-58
2020/12/28 08:18:21;;;;;;;1.33;1.20;;;6.00;99.90;;;;;;5064219;28;20207;-58
2020/12/28 08:20:56;;;;;;;3.95;1.83;;;5.90;99.90;;;;;;5068907;28;20184;-58
2020/12/28 08:23:26;;;;;;;1.30;1.20;;;6.10;99.90;;;;;;5069070;28;20190;-59
2020/12/28 08:25:52;;;;;;;2.22;1.35;;;6.10;99.90;;;;;;5068549;28;20219;-58
2020/12/28 08:28:19;;;;;;;1.57;1.47;;;6.10;99.90;;;;;;5059001;28;20284;-58
2020/12/28 08:30:44;;;;;;;1.88;1.75;;;6.00;99.90;;;;;;5064986;28;20207;-58
2020/12/28 08:33:10;;;;;;;1.43;1.33;;;6.30;99.90;;;;;;5068606;28;20685;-58
2020/12/28 08:35:46;;;;;;;2.57;1.50;;;6.30;99.90;;;;;;5068750;28;20499;-58
2020/12/28 08:38:12;;;;;;;4.47;1.90;;;6.20;99.90;;;;;;5066915;28;20517;-58
2020/12/28 08:40:37;;;;;;;2.60;1.60;;;6.00;99.90;;;;;;5062172;28;20177;-59
2020/12/28 08:43:03;;;;;;;1.53;1.30;;;6.00;99.90;;;;;;5067552;28;20203;-59
2020/12/28 08:45:29;;;;;;;3.20;1.67;;;5.90;99.90;;;;;;5063404;28;20191;-58
2020/12/28 08:47:57;;;;;;;2.43;1.70;;;6.00;99.90;;;;;;5068759;28;20564;-58
2020/12/28 08:50:24;;;;;;;1.55;1.42;;;6.30;99.90;;;;;;5064923;28;20771;-58
2020/12/28 08:52:51;;;;;;;2.75;1.42;;;6.00;99.90;;;;;;5064759;28;20308;-59
2020/12/28 08:55:18;;;;;;;1.35;1.23;;;6.20;99.90;;;;;;5068495;28;20547;-58
2020/12/28 08:57:53;;;;;;;2.30;1.70;;;6.10;99.90;;;;;;5068126;28;20212;-58
2020/12/28 09:00:20;;;;;;;3.17;1.40;;;6.20;99.90;;;;;;5068345;28;20190;-58
2020/12/28 09:02:57;;;;;;;2.40;1.50;;;6.30;99.90;;;;;;5068053;28;20209;-58
2020/12/28 09:05:32;;;;;;;1.17;1.00;;;6.40;99.90;;;;;;5064482;28;20185;-59
2020/12/28 09:07:58;;;;;;;1.05;0.88;;;6.60;99.90;;;;;;5048310;28;20208;-58
2020/12/28 09:10:23;;;;;;;1.00;0.80;;;6.40;99.90;;;;;;5048222;28;20180;-58
2020/12/28 09:12:49;;;;;;;2.47;0.90;;;6.50;99.90;;;;;;5048201;28;20466;-59
2020/12/28 09:15:14;;;;;;;1.90;0.90;;;6.80;99.90;;;;;;5063034;28;20186;-58
2020/12/28 09:17:40;;;;;;;1.33;0.90;;;6.60;99.90;;;;;;5068640;28;20289;-58
2020/12/28 09:20:06;;;;;;;1.60;0.70;;;6.50;99.90;;;;;;5068273;28;20522;-58
2020/12/28 09:22:32;;;;;;;1.00;0.80;;;6.80;99.90;;;;;;5068500;28;20194;-58
2020/12/28 09:24:58;;;;;;;0.80;0.80;;;6.60;99.90;;;;;;5068245;28;20188;-59
2020/12/28 09:27:23;;;;;;;3.20;0.70;;;6.40;99.90;;;;;;5068037;28;20203;-59
2020/12/28 09:29:49;;;;;;;0.80;0.80;;;6.50;99.90;;;;;;5068027;28;20252;-59
2020/12/28 09:32:15;;;;;;;1.47;0.90;;;6.80;99.90;;;;;;5069107;28;20226;-58
2020/12/28 09:34:40;;;;;;;1.40;1.30;;;6.60;99.90;;;;;;5068117;28;20173;-58
2020/12/28 09:37:08;;;;;;;1.20;1.10;;;6.50;99.90;;;;;;5067809;28;20201;-59
2020/12/28 09:39:35;;;;;;;2.15;1.20;;;6.70;99.90;;;;;;5067927;28;20172;-59
2020/12/28 09:42:01;;;;;;;0.93;0.82;;;6.60;99.90;;;;;;5067739;28;20179;-58
2020/12/28 09:44:26;;;;;;;1.10;0.90;;;6.90;99.90;;;;;;5064722;28;20273;-59
2020/12/28 09:46:53;;;;;;;1.73;1.03;;;6.70;99.90;;;;;;5047754;28;20664;-58
2020/12/28 09:49:20;;;;;;;1.45;1.15;;;6.80;99.90;;;;;;5060922;28;20251;-58
2020/12/28 09:51:47;;;;;;;1.27;0.90;;;6.80;99.90;;;;;;5058554;28;20233;-59
2020/12/28 09:54:13;;;;;;;1.00;0.90;;;6.60;99.90;;;;;;5061211;28;20185;-59
2020/12/28 09:56:39;;;;;;;0.85;0.77;;;6.80;99.90;;;;;;5066525;28;20221;-60
2020/12/28 09:59:05;;;;;;;1.20;0.90;;;7.00;99.90;;;;;;5068415;28;20188;-59
2020/12/28 10:01:31;;;;;;;1.10;1.00;;;7.10;99.90;;;;;;5067267;28;20222;-59
2020/12/28 10:03:56;;;;;;;1.20;1.10;;;7.20;99.90;;;;;;5067387;28;20295;-59
2020/12/28 10:06:31;;;;;;;2.13;1.70;;;7.10;99.90;;;;;;5067268;28;20447;-59
2020/12/28 10:09:08;;;;;;;1.70;1.20;;;7.20;99.90;;;;;;5067136;28;20221;-59
2020/12/28 10:11:34;;;;;;;2.47;2.00;;;7.10;99.90;;;;;;5067220;28;20204;-60
2020/12/28 10:14:00;;;;;;;2.63;1.95;;;7.20;99.90;;;;;;5067524;28;20181;-59
2020/12/28 10:16:28;;;;;;;3.27;2.47;;;7.20;99.90;;;;;;5067527;28;20273;-59
2020/12/28 10:18:54;;;;;;;1.77;1.67;;;7.40;99.90;;;;;;5066913;28;20219;-59
2020/12/28 10:21:21;;;;;;;1.90;1.77;;;7.40;99.90;;;;;;5067478;28;20370;-58
2020/12/28 10:23:47;;;;;;;1.70;1.60;;;7.10;99.90;;;;;;5067343;28;20288;-59
2020/12/28 10:26:18;;;;;;;1.90;1.80;;;7.30;99.90;;;;;;5067278;28;20690;-59
2020/12/28 10:28:44;;;;;;;2.42;2.22;;;7.10;99.90;;;;;;5066975;28;20427;-59
2020/12/28 10:31:11;;;;;;;2.20;2.00;;;7.10;99.90;;;;;;5067425;28;20177;-60
2020/12/28 10:33:38;;;;;;;3.22;2.40;;;7.10;99.90;;;;;;5067059;28;20206;-59
2020/12/28 10:36:04;;;;;;;2.40;2.17;;;7.30;99.90;;;;;;5067114;28;20260;-60
2020/12/28 10:38:30;;;;;;;2.33;2.00;;;7.10;99.90;;;;;;5067116;28;20173;-59
2020/12/28 10:40:56;;;;;;;2.30;2.10;;;7.30;99.90;;;;;;5067351;28;20678;-59
2020/12/28 10:43:21;;;;;;;2.33;2.13;;;7.00;99.90;;;;;;5067265;28;20173;-60
2020/12/28 10:45:47;;;;;;;3.00;2.70;;;7.30;99.90;;;;;;5063936;28;20663;-58
2020/12/28 10:48:13;;;;;;;3.20;2.90;;;7.20;99.90;;;;;;5047079;28;20244;-59
2020/12/28 10:50:39;;;;;;;3.03;2.73;;;7.00;99.90;;;;;;5057530;28;20668;-59
2020/12/28 10:53:04;;;;;;;2.87;2.63;;;7.20;99.90;;;;;;5056702;28;20704;-60
2020/12/28 10:55:30;;;;;;;2.70;2.50;;;7.20;99.90;;;;;;5069513;28;20574;-60
2020/12/28 10:57:56;;;;;;;2.70;2.50;;;7.40;99.90;;;;;;5070582;28;20208;-59
2020/12/28 11:00:21;;;;;;;3.23;2.93;;;7.10;99.90;;;;;;5070848;28;20195;-59
2020/12/28 11:02:49;;;;;;;3.20;2.83;;;7.20;99.90;;;;;;5070598;28;20199;-59
2020/12/28 11:05:14;;;;;;;4.18;2.97;;;7.20;99.90;;;;;;5070610;28;20594;-59
2020/12/28 11:07:40;;;;;;;2.67;2.47;;;7.40;99.90;;;;;;5070884;28;20246;-59
2020/12/28 11:10:06;;;;;;;2.83;2.63;;;7.10;99.90;;;;;;5070822;28;20185;-60
2020/12/28 11:12:31;;;;;;;3.00;2.70;;;7.30;99.90;;;;;;5070552;28;20222;-60
2020/12/28 11:14:57;;;;;;;3.43;3.13;;;7.50;99.90;;;;;;5070528;28;20184;-59
2020/12/28 11:17:23;;;;;;;4.63;3.37;;;7.30;99.90;;;;;;5070318;28;20566;-59
2020/12/28 11:19:48;;;;;;;2.85;2.65;;;7.30;99.90;;;;;;5069815;28;20181;-59
2020/12/28 11:22:14;;;;;;;2.07;1.97;;;7.40;99.90;;;;;;5070083;28;20212;-59
2020/12/28 11:24:39;;;;;;;2.60;2.40;;;7.40;99.90;;;;;;5070004;28;20287;-59
2020/12/28 11:27:05;;;;;;;2.70;2.50;;;7.50;99.90;;;;;;5070220;28;20212;-59
2020/12/28 11:29:31;;;;;;;2.50;2.30;;;7.50;99.90;;;;;;5069503;28;20203;-59
2020/12/28 11:31:56;;;;;;;2.90;2.00;;;7.50;99.90;;;;;;5069784;28;20256;-59
2020/12/28 11:34:22;;;;;;;3.70;3.00;;;7.40;99.90;;;;;;5069932;28;20676;-59
2020/12/28 11:36:47;;;;;;;3.90;2.83;;;7.30;99.90;;;;;;5069794;28;20212;-59
2020/12/28 11:39:14;;;;;;;2.50;2.30;;;7.50;99.90;;;;;;5069745;28;20218;-59
2020/12/28 11:41:40;;;;;;;2.67;2.10;;;7.50;99.90;;;;;;5065385;28;20177;-60
2020/12/28 11:44:10;;;;;;;2.33;2.13;;;7.60;99.90;;;;;;5062856;28;20589;-59
2020/12/28 11:46:36;;;;;;;2.67;2.30;;;7.70;99.90;;;;;;5069159;28;20228;-59
2020/12/28 11:49:02;;;;;;;2.88;2.50;;;7.60;99.90;;;;;;5059049;28;20187;-59
2020/12/28 11:51:28;;;;;;;2.87;2.67;;;7.50;99.90;;;;;;5069171;28;20642;-59
2020/12/28 11:53:53;;;;;;;2.57;2.37;;;7.60;99.90;;;;;;5070712;28;20207;-59
2020/12/28 11:56:19;;;;;;;3.37;3.07;;;7.50;99.90;;;;;;5069296;28;20700;-60
2020/12/28 11:58:45;;;;;;;2.53;2.33;;;7.60;99.90;;;;;;5069669;28;20213;-59
2020/12/28 12:01:18;;;;;;;2.70;2.50;;;7.30;99.90;;;;;;5068960;28;20461;-59
2020/12/28 12:03:47;;;;;;;2.45;2.25;;;7.40;99.90;;;;;;5068956;28;20841;-58
2020/12/28 12:06:17;;;;;;;2.40;2.13;;;7.40;99.90;;;;;;5068535;28;20271;-58
2020/12/28 12:11:31;;;;;;;2.72;2.53;;;7.60;99.90;;;;;;5070685;28;20195;-59
2020/12/28 12:13:56;;;;;;;4.43;3.40;;;7.80;99.90;;;;;;5069008;28;20611;-59
2020/12/28 12:16:23;;;;;;;3.80;3.00;;;7.40;99.90;;;;;;5068955;28;20346;-59
2020/12/28 12:18:49;;;;;;;3.38;3.08;;;7.60;99.90;;;;;;5068565;28;20239;-58
2020/12/28 12:21:15;;;;;;;3.30;3.00;;;7.40;99.90;;;;;;5068310;28;20181;-59
2020/12/28 12:23:40;;;;;;;3.03;2.73;;;7.60;99.90;;;;;;5068824;28;20192;-59
2020/12/28 12:26:07;;;;;;;2.57;2.10;;;7.80;99.90;;;;;;5068488;28;20204;-58
2020/12/28 12:28:32;;;;;;;1.90;1.70;;;7.40;99.90;;;;;;5068164;28;20273;-59
2020/12/28 12:30:58;;;;;;;2.77;2.20;;;7.70;99.90;;;;;;5068461;28;20216;-58
2020/12/28 12:33:23;;;;;;;4.67;2.27;;;7.90;99.90;;;;;;5068358;28;20212;-58
2020/12/28 12:35:49;;;;;;;2.60;2.40;;;7.60;99.90;;;;;;5068257;28;20185;-58
2020/12/28 12:38:15;;;;;;;2.30;2.10;;;7.80;99.90;;;;;;5068017;28;20243;-58
2020/12/28 12:40:40;;;;;;;2.70;2.40;;;7.50;99.90;;;;;;5068396;28;20189;-60
2020/12/28 12:43:06;;;;;;;9.73;3.77;;;7.70;99.90;;;;;;5068108;28;20648;-58
2020/12/28 12:45:31;;;;;;;3.57;2.53;;;7.70;99.90;;;;;;5068358;28;20188;-59
2020/12/28 12:47:57;;;;;;;3.00;2.10;;;7.50;99.90;;;;;;5067922;28;20620;-58
2020/12/28 12:50:25;;;;;;;2.33;2.13;;;7.60;99.90;;;;;;5064929;28;20231;-58
2020/12/28 12:52:51;;;;;;;2.28;2.00;;;7.60;99.90;;;;;;5066262;28;20219;-58
2020/12/28 12:55:17;;;;;;;1.50;1.40;;;7.50;99.90;;;;;;5068280;28;20702;-58
2020/12/28 12:57:42;;;;;;;3.30;1.40;;;7.50;99.90;;;;;;5068125;28;20213;-59
2020/12/28 13:00:08;;;;;;;1.70;1.60;;;7.50;99.90;;;;;;5067965;28;20802;-59